Impacts METAR Board INFO
IDs:

KPHL - Philadelphia Intl, PA, US

Updated at: 1321 UTC 19 Jan 2018
Potential Impact None Slight Moderate High
Time19/01Z 19/02Z 19/03Z 19/04Z 19/05Z 19/06Z 19/07Z 19/08Z 19/09Z 19/10Z 19/11Z 19/12Z 19/13Z
VIS10 10 10 10 10 10 10 10 10 10 10 10 10
CIG-- -- -- -- -- -- -- 250 -- -- -- 280 250
CoverCLRCLRCLRCLRCLRFEWFEWBKNFEWCLRSCTBKNBKN
FltCatVFRVFRVFRVFRVFRVFRVFRVFRVFRVFRVFRVFRVFR
WX--------------------------
WDir2903100002400220240220260250250
WSpd5 3 0 0 0 6 0 5 7 6 6 5 5
WGst-- -- -- -- -- -- -- -- -- -- -- -- --
Raw hourly METARs
KPHL 190054Z 29005KT 10SM CLR 00/M12 A3009 RMK AO2 SLP190 T00001122
KPHL 190154Z 31003KT 10SM CLR 00/M12 A3011 RMK AO2 SLP195 T00001122
KPHL 190254Z 00000KT 10SM CLR M01/M12 A3012 RMK AO2 SLP198 T10111117 51013
KPHL 190354Z 00000KT 10SM CLR M02/M12 A3012 RMK AO2 SLP199 T10221117
KPHL 190454Z 00000KT 10SM CLR M03/M08 A3011 RMK AO2 SLP196 T10281078 400221078
KPHL 190554Z 24006KT 10SM FEW260 M03/M08 A3009 RMK AO2 SLP189 T10331078 10006 21039 58008
KPHL 190654Z 00000KT 10SM FEW250 M04/M09 A3008 RMK AO2 SLP187 T10441094
KPHL 190754Z 22005KT 10SM BKN250 M04/M09 A3008 RMK AO2 SLP185 T10441094
KPHL 190854Z 24007KT 10SM FEW250 M04/M09 A3009 RMK AO2 SLP190 T10391094 53000
KPHL 190954Z 22006KT 10SM CLR M03/M08 A3009 RMK AO2 SLP190 T10331083
KPHL 191054Z 26006KT 10SM FEW200 SCT260 M05/M09 A3010 RMK AO2 SLP193 T10501089
KPHL 191154Z 25005KT 10SM SCT250 BKN280 M04/M08 A3011 RMK AO2 SLP196 T10391083 11033 21050 53006
KPHL 191254Z 25005KT 10SM SCT230 BKN250 M03/M07 A3011 RMK AO2 SLP197 T10331072